Vermilion, Canada
Current Conditions -  °F | °C
As of 5:31 AM on Wednesday 26 Nov 2014 (Local Time) from CYLL Reporting Station
Overcast Overcast  
Wind Chill: -16°   Ceiling: 6000
Heat Index:   Visibility: 9mi
Dew Point: -4°   Wind: 9mph
Humidity: 85%   Direction: 110°ESE
Pressure: 30.26"   Gusts: NA
Location:  53.35°N, 110.86°W
Report Text: CYLL 261231Z AUTO 11008KT 9SM BKN060 OVC073 M18/M20 A3026 RMK SLP310
Loading
Personal Weather Stations






























Interactive Weather Map New forecast layout! Learn more

10-Day Weather Forecast

Advertisements
Track Severe Weather on mobile